createdAt,value
2024-01-22T00:00:48.414Z,100991.06
2024-01-22T00:03:17.549Z,100967.66
2024-01-22T00:05:45.988Z,100967.50
2024-01-22T00:08:14.695Z,100965.56
2024-01-22T00:10:42.695Z,100952.91
2024-01-22T00:13:10.533Z,100957.25
2024-01-22T00:15:38.405Z,100951.81
2024-01-22T00:18:08.255Z,100946.34
2024-01-22T00:20:36.920Z,100930.97
2024-01-22T00:23:05.674Z,100937.16
2024-01-22T00:25:33.700Z,100939.88
2024-01-22T00:28:01.544Z,100929.81
2024-01-22T00:30:29.489Z,100918.88
2024-01-22T00:32:57.895Z,100912.50
2024-01-22T00:35:26.231Z,100919.59
2024-01-22T00:37:54.148Z,100920.47
2024-01-22T00:40:22.074Z,100905.06
2024-01-22T00:42:50.072Z,100892.41
2024-01-22T00:45:18.209Z,100887.78
2024-01-22T00:47:46.174Z,100888.66
2024-01-22T00:50:14.572Z,100893.94
2024-01-22T00:52:43.860Z,100873.94
2024-01-22T00:55:11.898Z,100856.81
2024-01-22T00:57:39.862Z,100849.47
2024-01-22T01:00:09.456Z,100842.22
2024-01-22T01:02:37.515Z,100834.00
2024-01-22T01:05:05.709Z,100825.75
2024-01-22T01:07:34.232Z,100813.00
2024-01-22T01:10:03.630Z,100808.38
2024-01-22T01:12:31.467Z,100802.00
2024-01-22T01:14:59.354Z,100809.06
2024-01-22T01:17:27.356Z,100792.59
2024-01-22T01:19:55.342Z,100797.06
2024-01-22T01:22:23.184Z,100797.75
2024-01-22T01:24:51.032Z,100785.81
2024-01-22T01:27:20.584Z,100781.09
2024-01-22T01:29:48.534Z,100781.88
2024-01-22T01:32:16.618Z,100766.38
2024-01-22T01:34:44.676Z,100745.38
2024-01-22T01:37:12.550Z,100731.63
2024-01-22T01:39:40.394Z,100712.53
2024-01-22T01:42:08.596Z,100705.97
2024-01-22T01:44:51.342Z,100694.81
2024-01-22T01:47:19.967Z,100721.16
2024-01-22T01:49:49.279Z,100719.78
2024-01-22T01:52:18.304Z,100723.16
2024-01-22T01:54:47.623Z,100740.00
2024-01-22T01:57:16.078Z,100730.03
2024-01-22T01:59:45.694Z,100729.72
2024-01-22T02:02:14.352Z,100742.22
2024-01-22T02:04:42.321Z,100735.69
2024-01-22T02:07:10.648Z,100752.66
2024-01-22T02:09:49.235Z,100761.34
2024-01-22T02:12:18.481Z,100761.34
2024-01-22T02:14:48.382Z,100764.84
2024-01-22T02:17:16.632Z,100745.66
2024-01-22T02:19:45.125Z,100749.16
2024-01-22T02:22:13.402Z,100721.78
2024-01-22T02:24:42.752Z,100717.94
2024-01-22T02:27:10.834Z,100704.34
2024-01-22T02:29:38.898Z,100717.69
2024-01-22T02:32:07.522Z,100717.59
2024-01-22T02:34:35.870Z,100704.03
2024-01-22T02:37:03.990Z,100680.44
2024-01-22T02:39:32.114Z,100682.94
2024-01-22T02:42:01.651Z,100672.09
2024-01-22T02:44:29.461Z,100670.22
2024-01-22T02:46:57.516Z,100664.69
2024-01-22T02:49:25.594Z,100655.59
2024-01-22T02:51:53.598Z,100642.78
2024-01-22T02:54:21.554Z,100631.06
2024-01-22T02:56:49.553Z,100603.81
2024-01-22T02:59:20.243Z,100610.03
2024-01-22T03:01:48.278Z,100616.41
2024-01-22T03:04:16.698Z,100613.56
2024-01-22T03:06:44.778Z,100621.72
2024-01-22T03:09:12.743Z,100600.00
2024-01-22T03:11:41.865Z,100612.50
2024-01-22T03:14:09.731Z,100611.63
2024-01-22T03:16:39.029Z,100610.66
2024-01-22T03:19:07.171Z,100614.34
2024-01-22T03:21:35.093Z,100608.81
2024-01-22T03:24:03.291Z,100615.00
2024-01-22T03:26:31.464Z,100615.00
2024-01-22T03:28:59.370Z,100596.91
2024-01-22T03:31:28.764Z,100600.38
2024-01-22T03:33:58.833Z,100588.50
2024-01-22T03:36:27.303Z,100595.78
2024-01-22T03:38:55.216Z,100575.81
2024-01-22T03:41:23.215Z,100582.13
2024-01-22T03:43:51.121Z,100577.56
2024-01-22T03:46:19.953Z,100578.31
2024-01-22T03:48:48.053Z,100562.03
2024-01-22T03:51:17.556Z,100545.56
2024-01-22T03:53:45.552Z,100544.53
2024-01-22T03:56:13.986Z,100540.84
2024-01-22T03:58:41.993Z,100538.16
2024-01-22T04:01:10.278Z,100543.81
2024-01-22T04:03:38.288Z,100527.22
2024-01-22T04:06:07.349Z,100535.22
2024-01-22T04:08:36.706Z,100525.22
2024-01-22T04:11:04.686Z,100523.47
2024-01-22T04:13:35.478Z,100507.09
2024-01-22T04:16:03.955Z,100508.88
2024-01-22T04:18:32.076Z,100508.53
2024-01-22T04:21:00.183Z,100493.00
2024-01-22T04:23:28.537Z,100498.09
2024-01-22T04:25:57.909Z,100492.31
2024-01-22T04:28:25.890Z,100477.56
2024-01-22T04:30:53.837Z,100500.41
2024-01-22T04:33:22.031Z,100478.31
2024-01-22T04:35:50.838Z,100486.72
2024-01-22T04:38:19.675Z,100487.03
2024-01-22T04:40:47.724Z,100480.16
2024-01-22T04:43:17.865Z,100474.75
2024-01-22T04:45:45.819Z,100464.34
2024-01-22T04:48:14.179Z,100471.69
2024-01-22T04:50:42.293Z,100481.78
2024-01-22T04:53:10.276Z,100476.47
2024-01-22T04:55:38.616Z,100459.44
2024-01-22T04:58:06.681Z,100460.41
2024-01-22T05:00:36.105Z,100466.69
2024-01-22T05:03:06.493Z,100466.69
2024-01-22T05:05:35.446Z,100463.09
2024-01-22T05:08:03.593Z,100455.84
2024-01-22T05:10:31.532Z,100455.84
2024-01-22T05:12:59.385Z,100452.19
2024-01-22T05:15:27.318Z,100450.34
2024-01-22T05:17:56.804Z,100456.53
2024-01-22T05:20:24.736Z,100459.25
2024-01-22T05:22:52.612Z,100461.84
2024-01-22T05:25:20.700Z,100460.03
2024-01-22T05:27:49.405Z,100455.34
2024-01-22T05:30:17.404Z,100454.47
2024-01-22T05:32:45.451Z,100453.50
2024-01-22T05:35:16.163Z,100455.16
2024-01-22T05:37:44.063Z,100462.41
2024-01-22T05:40:12.497Z,100447.81
2024-01-22T05:42:41.830Z,100455.06
2024-01-22T05:45:11.613Z,100452.25
2024-01-22T05:47:39.631Z,100451.16
2024-01-22T05:50:10.121Z,100455.59
2024-01-22T05:52:39.467Z,100461.88
2024-01-22T05:55:08.120Z,100440.13
2024-01-22T05:57:36.081Z,100434.72
2024-01-22T06:00:10.586Z,100431.03
2024-01-22T06:02:40.960Z,100428.22
2024-01-22T06:05:10.658Z,100429.84
2024-01-22T06:07:40.211Z,100420.56
2024-01-22T06:10:09.878Z,100427.56
2024-01-22T06:12:38.257Z,100425.44
2024-01-22T06:15:06.853Z,100415.25
2024-01-22T06:17:35.133Z,100415.81
2024-01-22T06:20:04.583Z,100411.72
2024-01-22T06:22:34.721Z,100407.69
2024-01-22T06:25:05.103Z,100388.31
2024-01-22T06:27:33.035Z,100383.34
2024-01-22T06:32:56.625Z,100385.94
2024-01-22T06:35:24.716Z,100387.13
2024-01-22T06:37:53.456Z,100385.59
2024-01-22T06:40:22.828Z,100381.34
2024-01-22T06:42:50.951Z,100389.91
2024-01-22T06:45:19.268Z,100381.22
2024-01-22T06:47:47.214Z,100386.13
2024-01-22T06:50:15.545Z,100379.16
2024-01-22T06:52:44.181Z,100393.03
2024-01-22T06:55:12.126Z,100390.72
2024-01-22T06:57:41.688Z,100397.19
2024-01-22T07:00:13.310Z,100390.44
2024-01-22T07:02:42.833Z,100393.81
2024-01-22T07:05:11.841Z,100404.09
2024-01-22T07:07:40.336Z,100394.63
2024-01-22T07:10:09.797Z,100374.28
2024-01-22T07:12:38.093Z,100383.94
2024-01-22T07:15:09.934Z,100383.50
2024-01-22T07:17:37.902Z,100367.91
2024-01-22T07:20:06.978Z,100372.03
2024-01-22T07:22:37.526Z,100394.38
2024-01-22T07:25:06.063Z,100407.63
2024-01-22T07:27:33.865Z,100391.06
2024-01-22T07:30:01.837Z,100386.19
2024-01-22T07:32:31.753Z,100394.81
2024-01-22T07:34:59.766Z,100399.91
2024-01-22T07:37:27.737Z,100410.44
2024-01-22T07:39:56.189Z,100410.94
2024-01-22T07:42:24.093Z,100397.00
2024-01-22T07:44:52.217Z,100422.84
2024-01-22T07:47:23.184Z,100447.78
2024-01-22T07:49:52.726Z,100441.91
2024-01-22T07:52:22.017Z,100428.81
2024-01-22T07:54:50.521Z,100437.50
2024-01-22T07:57:18.662Z,100438.97
2024-01-22T07:59:47.802Z,100451.41
2024-01-22T08:02:16.006Z,100448.53
2024-01-22T08:04:44.079Z,100439.28
2024-01-22T08:07:13.680Z,100450.78
2024-01-22T08:09:42.191Z,100454.50
2024-01-22T08:12:10.220Z,100441.75
2024-01-22T08:14:38.268Z,100454.38
2024-01-22T08:17:06.240Z,100461.53
2024-01-22T08:19:35.814Z,100456.94
2024-01-22T08:22:04.238Z,100459.66
2024-01-22T08:24:34.156Z,100452.38
2024-01-22T08:27:02.321Z,100448.78
2024-01-22T08:29:30.307Z,100448.78
2024-01-22T08:31:58.201Z,100438.78
2024-01-22T08:34:26.399Z,100447.91
2024-01-22T08:36:54.477Z,100448.94
2024-01-22T08:39:22.657Z,100437.19
2024-01-22T08:41:51.968Z,100453.50
2024-01-22T08:44:20.138Z,100454.59
2024-01-22T08:46:48.059Z,100445.56
2024-01-22T08:49:16.031Z,100451.88
2024-01-22T08:51:44.000Z,100441.88
2024-01-22T08:54:12.064Z,100440.03
2024-01-22T08:56:40.292Z,100444.47
2024-01-22T08:59:10.074Z,100439.75
2024-01-22T09:01:38.112Z,100439.75
2024-01-22T09:04:07.279Z,100439.66
2024-01-22T09:06:35.476Z,100438.66
2024-01-22T09:09:06.320Z,100418.53
2024-01-22T09:11:34.358Z,100426.69
2024-01-22T09:14:02.270Z,100415.69
2024-01-22T09:16:31.790Z,100427.28
2024-01-22T09:19:00.204Z,100422.72
2024-01-22T09:21:28.340Z,100414.44
2024-01-22T09:23:56.353Z,100431.50
2024-01-22T09:26:24.373Z,100432.38
2024-01-22T09:28:52.448Z,100429.41
2024-01-22T09:31:20.451Z,100432.88
2024-01-22T09:33:52.408Z,100424.47
2024-01-22T09:36:20.809Z,100408.25
2024-01-22T09:38:48.921Z,100415.22
2024-01-22T09:41:17.345Z,100424.09
2024-01-22T09:43:45.363Z,100422.13
2024-01-22T09:46:14.223Z,100432.78
2024-01-22T09:48:42.805Z,100428.06
2024-01-22T09:51:14.022Z,100419.66
2024-01-22T09:53:47.741Z,100433.13
2024-01-22T09:56:21.105Z,100426.59
2024-01-22T09:58:54.132Z,100421.88
2024-01-22T10:01:22.244Z,100424.47
2024-01-22T10:03:50.265Z,100421.50
2024-01-22T10:06:22.958Z,100437.47
2024-01-22T10:08:58.694Z,100411.97
2024-01-22T10:11:27.418Z,100424.47
2024-01-22T10:13:57.920Z,100407.88
2024-01-22T10:16:27.547Z,100415.69
2024-01-22T10:19:00.374Z,100412.56
2024-01-22T10:21:30.122Z,100396.97
2024-01-22T10:23:59.245Z,100417.53
2024-01-22T10:26:27.232Z,100399.19
2024-01-22T10:28:56.436Z,100405.84
2024-01-22T10:31:24.468Z,100405.59
2024-01-22T10:34:06.709Z,100399.66
2024-01-22T10:36:36.266Z,100384.91
2024-01-22T10:39:05.575Z,100383.41
2024-01-22T10:41:36.441Z,100395.63
2024-01-22T10:44:05.212Z,100403.03
2024-01-22T10:46:33.773Z,100401.56
2024-01-22T10:49:02.496Z,100400.06
2024-01-22T10:51:31.302Z,100402.84
2024-01-22T10:54:00.910Z,100399.34
2024-01-22T10:56:32.593Z,100397.69
2024-01-22T10:59:09.931Z,100394.28
2024-01-22T11:01:39.403Z,100389.19
2024-01-22T11:04:11.947Z,100387.53
2024-01-22T11:06:44.139Z,100408.81
2024-01-22T11:09:14.584Z,100397.50
2024-01-22T11:11:44.534Z,100385.78
2024-01-22T11:14:12.530Z,100391.72
2024-01-22T11:16:40.744Z,100390.28
2024-01-22T11:19:09.260Z,100386.03
2024-01-22T11:21:39.221Z,100379.31
2024-01-22T11:24:11.817Z,100395.13
2024-01-22T11:26:45.791Z,100373.84
2024-01-22T11:29:17.513Z,100371.72
2024-01-22T11:31:48.009Z,100380.38
2024-01-22T11:34:37.925Z,100383.56
2024-01-22T11:37:08.741Z,100384.44
2024-01-22T11:39:44.037Z,100373.72
2024-01-22T11:42:29.832Z,100370.69
2024-01-22T11:45:08.772Z,100366.94
2024-01-22T11:47:37.057Z,100384.06
2024-01-22T11:50:08.649Z,100375.44
2024-01-22T11:52:38.567Z,100376.19
2024-01-22T11:55:08.519Z,100391.56
2024-01-22T11:57:41.191Z,100382.25
2024-01-22T12:00:13.464Z,100382.94
2024-01-22T12:02:43.691Z,100404.66
2024-01-22T12:05:14.266Z,100421.78
2024-01-22T12:07:44.030Z,100423.66
2024-01-22T12:10:22.623Z,100431.72
2024-01-22T12:12:53.497Z,100441.19
2024-01-22T12:15:23.826Z,100424.34
2024-01-22T12:17:52.949Z,100432.81
2024-01-22T12:20:21.854Z,100423.06
2024-01-22T12:22:58.672Z,100443.91
2024-01-22T12:25:35.483Z,100442.16
2024-01-22T12:28:11.841Z,100444.91
2024-01-22T12:30:43.392Z,100450.63
2024-01-22T12:33:22.850Z,100450.38
2024-01-22T12:35:53.426Z,100464.03
2024-01-22T12:38:23.601Z,100462.84
2024-01-22T12:40:59.299Z,100473.25
2024-01-22T12:43:30.108Z,100468.50
2024-01-22T12:46:06.164Z,100473.44
2024-01-22T12:48:34.989Z,100468.84
2024-01-22T12:51:03.204Z,100476.63
2024-01-22T12:53:33.658Z,100483.69
2024-01-22T12:56:02.371Z,100476.78
2024-01-22T12:58:31.850Z,100459.13
2024-01-22T13:01:00.193Z,100476.22
2024-01-22T13:03:28.426Z,100517.97
2024-01-22T13:05:56.493Z,100550.63
2024-01-22T13:08:24.436Z,100544.28
2024-01-22T13:10:52.859Z,100528.03
2024-01-22T13:13:20.810Z,100533.75
2024-01-22T13:16:03.073Z,100531.19
2024-01-22T13:18:40.048Z,100539.03
2024-01-22T13:21:08.974Z,100540.34
2024-01-22T13:23:37.170Z,100530.81
2024-01-22T13:26:05.593Z,100547.59
2024-01-22T13:28:33.504Z,100539.84
2024-01-22T13:31:03.215Z,100556.47
2024-01-22T13:33:31.298Z,100552.56
2024-01-22T13:35:59.409Z,100537.44
2024-01-22T13:38:30.254Z,100543.19
2024-01-22T13:40:58.921Z,100547.13
2024-01-22T13:43:26.843Z,100550.41
2024-01-22T13:45:55.436Z,100548.97
2024-01-22T13:48:24.910Z,100540.88
2024-01-22T13:50:53.164Z,100543.13
2024-01-22T13:53:21.745Z,100542.44
2024-01-22T13:55:49.977Z,100547.03
2024-01-22T13:58:17.894Z,100549.88
2024-01-22T14:00:45.970Z,100554.47
2024-01-22T14:03:14.677Z,100550.88
2024-01-22T14:05:44.291Z,100550.88
2024-01-22T14:08:12.579Z,100556.22
2024-01-22T14:10:42.214Z,100553.59
2024-01-22T14:13:10.369Z,100560.81
2024-01-22T14:15:38.307Z,100567.88
2024-01-22T14:18:06.653Z,100562.41
2024-01-22T14:20:34.792Z,100566.72
2024-01-22T14:23:08.775Z,100565.59
2024-01-22T14:25:37.890Z,100567.34
2024-01-22T14:28:06.350Z,100580.84
2024-01-22T14:30:34.889Z,100588.88
2024-01-22T14:33:03.071Z,100602.41
2024-01-22T14:35:31.663Z,100605.03
2024-01-22T14:38:00.412Z,100601.41
2024-01-22T14:40:30.050Z,100606.63
2024-01-22T14:42:58.447Z,100614.94
2024-01-22T14:45:26.864Z,100593.97
2024-01-22T14:47:55.594Z,100593.84
2024-01-22T14:50:23.885Z,100603.78
2024-01-22T14:52:51.840Z,100612.84
2024-01-22T14:55:19.962Z,100607.22
2024-01-22T14:57:49.230Z,100612.53
2024-01-22T15:00:18.327Z,100611.69
2024-01-22T15:02:46.317Z,100619.88
2024-01-22T15:05:15.421Z,100621.59
2024-01-22T15:07:43.509Z,100633.41
2024-01-22T15:10:11.752Z,100624.34
2024-01-22T15:12:39.652Z,100634.41
2024-01-22T15:15:11.224Z,100630.69
2024-01-22T15:17:39.428Z,100626.34
2024-01-22T15:20:10.489Z,100640.84
2024-01-22T15:22:40.740Z,100633.19
2024-01-22T15:25:10.490Z,100637.66
2024-01-22T15:27:38.931Z,100635.06
2024-01-22T15:30:12.370Z,100631.59
2024-01-22T15:32:41.074Z,100626.25
2024-01-22T15:35:10.932Z,100643.78
2024-01-22T15:37:39.611Z,100646.63
2024-01-22T15:40:09.034Z,100650.38
2024-01-22T15:42:37.786Z,100658.81
2024-01-22T15:45:09.392Z,100658.97
2024-01-22T15:47:40.985Z,100669.13
2024-01-22T15:50:09.845Z,100668.41
2024-01-22T15:52:37.787Z,100670.38
2024-01-22T15:55:06.455Z,100677.84
2024-01-22T15:57:35.051Z,100683.56
2024-01-22T16:00:03.551Z,100691.88
2024-01-22T16:02:41.516Z,100699.19
2024-01-22T16:05:10.059Z,100693.00
2024-01-22T16:07:38.513Z,100707.78
2024-01-22T16:10:07.925Z,100717.81
2024-01-22T16:12:36.207Z,100723.41
2024-01-22T16:15:04.721Z,100726.25
2024-01-22T16:17:33.039Z,100724.66
2024-01-22T16:20:02.652Z,100732.84
2024-01-22T16:22:30.731Z,100726.66
2024-01-22T16:25:02.735Z,100731.38
2024-01-22T16:27:30.799Z,100738.81
2024-01-22T16:29:58.963Z,100746.28
2024-01-22T16:32:27.120Z,100760.03
2024-01-22T16:34:56.040Z,100769.22
2024-01-22T16:37:27.386Z,100775.78
2024-01-22T16:39:55.326Z,100780.47
2024-01-22T16:42:23.291Z,100798.88
2024-01-22T16:44:51.464Z,100804.44
2024-01-22T16:47:19.985Z,100815.47
2024-01-22T16:49:48.125Z,100812.00
2024-01-22T16:52:16.612Z,100820.19
2024-01-22T16:54:46.298Z,100824.66
2024-01-22T16:57:14.538Z,100829.34
2024-01-22T16:59:42.919Z,100828.47
2024-01-22T17:02:10.841Z,100835.81
2024-01-22T17:04:38.868Z,100834.97
2024-01-22T17:07:07.376Z,100847.72
2024-01-22T17:09:35.477Z,100844.13
2024-01-22T17:12:07.431Z,100854.91
2024-01-22T17:14:36.793Z,100848.72
2024-01-22T17:20:58.683Z,100854.63
2024-01-22T17:23:27.088Z,100860.72
2024-01-22T17:25:55.904Z,100861.59
2024-01-22T17:28:25.442Z,100864.31
2024-01-22T17:30:53.897Z,100870.88
2024-01-22T17:33:22.300Z,100880.81
2024-01-22T17:35:50.682Z,100882.78
2024-01-22T17:38:19.404Z,100892.72
2024-01-22T17:40:47.521Z,100906.47
2024-01-22T17:43:15.608Z,100907.47
2024-01-22T17:45:45.235Z,100920.09
2024-01-22T17:48:13.241Z,100921.25
2024-01-22T17:50:40.201Z,100925.81
2024-01-22T17:53:08.148Z,100943.06
2024-01-22T17:55:36.116Z,100947.75
2024-01-22T17:58:04.276Z,100950.47
2024-01-22T18:00:32.381Z,100962.38
2024-01-22T18:03:01.950Z,100963.25
2024-01-22T18:05:29.950Z,100965.22
2024-01-22T18:07:58.772Z,100967.94
2024-01-22T18:10:26.777Z,100984.47
2024-01-22T18:12:54.927Z,100999.94
2024-01-22T18:15:23.113Z,100991.88
2024-01-22T18:17:51.269Z,100989.16
2024-01-22T18:20:20.705Z,100995.47
2024-01-22T18:22:48.750Z,100999.19
2024-01-22T18:25:16.952Z,101000.19
2024-01-22T18:27:44.988Z,101000.19
2024-01-22T18:30:13.643Z,100995.59
2024-01-22T18:32:41.717Z,101010.22
2024-01-22T18:35:10.326Z,101013.94
2024-01-22T18:37:39.692Z,101016.53
2024-01-22T18:40:09.868Z,101016.66
2024-01-22T18:42:39.158Z,101024.84
2024-01-22T18:45:11.173Z,101013.06
2024-01-22T18:47:40.910Z,101024.84
2024-01-22T18:50:09.894Z,101026.69
2024-01-22T18:52:39.263Z,101029.41
2024-01-22T18:55:08.323Z,101033.13
2024-01-22T18:57:36.356Z,101034.97
2024-01-22T19:00:05.370Z,101042.28
2024-01-22T19:02:33.394Z,101046.03
2024-01-22T19:05:01.530Z,101048.88
2024-01-22T19:07:29.520Z,101034.38
2024-01-22T19:09:58.791Z,101048.88
2024-01-22T19:12:26.869Z,101055.31
2024-01-22T19:14:55.001Z,101058.16
2024-01-22T19:17:22.967Z,101047.25
2024-01-22T19:19:51.137Z,101068.94
2024-01-22T19:22:19.237Z,101072.66
2024-01-22T19:24:47.222Z,101073.63
2024-01-22T19:27:17.330Z,101079.97
2024-01-22T19:29:45.285Z,101091.84
2024-01-22T19:32:14.337Z,101096.44
2024-01-22T19:34:42.454Z,101097.41
2024-01-22T19:37:10.590Z,101096.44
2024-01-22T19:39:38.580Z,101091.97
2024-01-22T19:42:07.298Z,101085.53
2024-01-22T19:44:38.431Z,101094.59
2024-01-22T19:47:06.827Z,101109.19
2024-01-22T19:49:34.723Z,101122.84
2024-01-22T19:52:02.734Z,101123.81
2024-01-22T19:54:30.639Z,101123.81
2024-01-22T19:56:58.793Z,101123.81
2024-01-22T19:59:27.343Z,101130.13
2024-01-22T20:01:56.743Z,101114.66
2024-01-22T20:04:24.806Z,101122.97
2024-01-22T20:06:55.120Z,101121.09
2024-01-22T20:09:25.512Z,101128.44
2024-01-22T20:11:53.824Z,101128.28
2024-01-22T20:14:21.804Z,101137.44
2024-01-22T20:16:49.763Z,101135.59
2024-01-22T20:19:19.119Z,101131.00
2024-01-22T20:21:48.820Z,101146.41
2024-01-22T20:24:19.194Z,101142.91
2024-01-22T20:26:48.325Z,101147.28
2024-01-22T20:29:16.448Z,101159.16
2024-01-22T20:31:44.466Z,101164.63
2024-01-22T20:34:12.688Z,101154.56
2024-01-22T20:36:42.065Z,101158.19
2024-01-22T20:39:10.055Z,101164.72
2024-01-22T20:41:41.581Z,101153.69
2024-01-22T20:44:09.739Z,101150.25
2024-01-22T20:46:37.987Z,101154.69
2024-01-22T20:49:06.508Z,101154.69
2024-01-22T20:51:34.616Z,101157.41
2024-01-22T20:54:04.461Z,101140.84
2024-01-22T20:56:32.405Z,101147.53
2024-01-22T20:59:01.665Z,101161.00
2024-01-22T21:01:30.004Z,101148.34
2024-01-22T21:03:58.257Z,101153.81
2024-01-22T21:06:26.648Z,101162.88
2024-01-22T21:08:54.975Z,101149.38
2024-01-22T21:11:24.618Z,101164.63
2024-01-22T21:13:53.404Z,101163.88
2024-01-22T21:16:22.160Z,101158.44
2024-01-22T21:18:50.289Z,101155.69
2024-01-22T21:21:18.445Z,101168.31
2024-01-22T21:23:49.236Z,101174.78
2024-01-22T21:26:18.903Z,101173.91
2024-01-22T21:28:49.940Z,101164.63
2024-01-22T21:31:19.544Z,101170.19
2024-01-22T21:33:49.141Z,101155.69
2024-01-22T21:36:17.625Z,101167.44
2024-01-22T21:38:45.754Z,101156.69
2024-01-22T21:41:14.357Z,101152.09
2024-01-22T21:43:42.342Z,101164.72
2024-01-22T21:46:11.810Z,101162.88
2024-01-22T21:48:39.933Z,101163.00
2024-01-22T21:51:07.917Z,101159.41
2024-01-22T21:53:42.318Z,101173.91
2024-01-22T21:56:11.176Z,101169.34
2024-01-22T21:58:39.333Z,101175.78
2024-01-22T22:01:08.421Z,101191.16
2024-01-22T22:03:38.263Z,101183.81
2024-01-22T22:06:07.856Z,101187.56
2024-01-22T22:08:36.156Z,101176.66
2024-01-22T22:11:04.800Z,101186.69
2024-01-22T22:13:32.806Z,101188.53
2024-01-22T22:16:01.840Z,101198.47
2024-01-22T22:18:30.602Z,101197.59
2024-01-22T22:21:00.107Z,101203.91
2024-01-22T22:23:28.764Z,101199.44
2024-01-22T22:25:56.631Z,101205.97
2024-01-22T22:28:24.491Z,101208.59
2024-01-22T22:30:53.730Z,101211.22
2024-01-22T22:33:22.175Z,101212.19
2024-01-22T22:35:51.442Z,101226.59
2024-01-22T22:38:21.065Z,101228.47
2024-01-22T22:40:49.067Z,101227.69
2024-01-22T22:43:20.162Z,101223.97
2024-01-22T22:45:48.201Z,101239.47
2024-01-22T22:48:16.279Z,101234.00
2024-01-22T22:50:44.411Z,101229.44
2024-01-22T22:53:12.363Z,101234.00
2024-01-22T22:55:41.869Z,101232.16
2024-01-22T22:58:09.745Z,101236.84
2024-01-22T23:00:37.929Z,101239.56
2024-01-22T23:03:06.947Z,101250.38
2024-01-22T23:05:35.036Z,101257.78
2024-01-22T23:08:03.115Z,101269.56
2024-01-22T23:10:31.013Z,101265.09
2024-01-22T23:13:01.120Z,101249.41
2024-01-22T23:15:29.281Z,101253.09
2024-01-22T23:17:57.343Z,101249.59
2024-01-22T23:20:25.821Z,101244.16
2024-01-22T23:22:53.982Z,101239.56
2024-01-22T23:25:21.902Z,101242.41
2024-01-22T23:27:49.781Z,101250.59
2024-01-22T23:30:19.354Z,101236.94
2024-01-22T23:32:47.318Z,101242.50
2024-01-22T23:35:15.758Z,101249.81
2024-01-22T23:37:49.543Z,101251.66
2024-01-22T23:40:17.879Z,101262.72
2024-01-22T23:42:46.075Z,101254.53
2024-01-22T23:45:14.599Z,101265.44
2024-01-22T23:47:43.966Z,101268.16
2024-01-22T23:50:12.834Z,101265.53
2024-01-22T23:52:40.916Z,101285.59
2024-01-22T23:55:11.297Z,101289.22
2024-01-22T23:57:39.671Z,101277.53
